Aviation Digital Data Service (ADDS)

Output produced by METARs form (0635 UTC 19 February 2019)
found at http://www.aviationweather.gov/metar/data/
 
METAR text: OPPS 190630Z 05004KT 4000 HZ FEW040 SCT110 13/08 Q1016
Conditions at: OPPS (PESHAWAR (CIV/MI, PK) observed 0630 UTC 19 February 2019
Temperature: 13.0°C (55°F)
Dewpoint: 8.0°C (46°F) [RH = 72%]
Pressure (altimeter): 30.00 inches Hg (1016.0 mb)
Winds: from the NE (50 degrees) at 5 MPH (4 knots; 2.1 m/s)
Visibility: 2.49 miles (4.01 km)
Ceiling: at least 12,000 feet AGL
Clouds: few clouds at 4000 feet AGL
scattered clouds at 11000 feet AGL
Weather: HZ  (haze)

METAR text: OPPS 190600Z 05004KT 2500 HZ FEW040 SCT110 13/08 Q1016
Conditions at: OPPS (PESHAWAR (CIV/MI, PK) observed 0600 UTC 19 February 2019
Temperature: 13.0°C (55°F)
Dewpoint: 8.0°C (46°F) [RH = 72%]
Pressure (altimeter): 30.00 inches Hg (1016.0 mb)
Winds: from the NE (50 degrees) at 5 MPH (4 knots; 2.1 m/s)
Visibility: 1.55 miles (2.49 km)
Ceiling: at least 12,000 feet AGL
Clouds: few clouds at 4000 feet AGL
scattered clouds at 11000 feet AGL
Weather: HZ  (haze)

METAR text: OPPS 190530Z 05004KT 3000 HZ SCT110 SCT160 11/07 Q1016
Conditions at: OPPS (PESHAWAR (CIV/MI, PK) observed 0530 UTC 19 February 2019
Temperature: 11.0°C (52°F)
Dewpoint: 7.0°C (45°F) [RH = 76%]
Pressure (altimeter): 30.00 inches Hg (1016.0 mb)
Winds: from the NE (50 degrees) at 5 MPH (4 knots; 2.1 m/s)
Visibility: 1.86 miles (2.99 km)
Ceiling: at least 12,000 feet AGL
Clouds: scattered clouds at 11000 feet AGL
scattered clouds at 16000 feet AGL
Weather: HZ  (haze)

METAR text: OPPS 190500Z 05004KT 3000 HZ SCT110 SCT60 11/07 Q1016
Conditions at: OPPS (PESHAWAR (CIV/MI, PK) observed 0500 UTC 19 February 2019
Temperature: 11.0°C (52°F)
Dewpoint: 7.0°C (45°F) [RH = 76%]
Pressure (altimeter): 30.00 inches Hg (1016.0 mb)
Winds: from the NE (50 degrees) at 5 MPH (4 knots; 2.1 m/s)
Visibility: 1.86 miles (2.99 km)
Ceiling: at least 12,000 feet AGL
Clouds: scattered clouds at 11000 feet AGL
Weather: HZ  (haze)

METAR text: OPPS 190430Z 23004KT 3600 HZ FEW100 08/05 Q1015
Conditions at: OPPS (PESHAWAR (CIV/MI, PK) observed 0430 UTC 19 February 2019
Temperature: 8.0°C (46°F)
Dewpoint: 5.0°C (41°F) [RH = 81%]
Pressure (altimeter): 29.97 inches Hg (1015.0 mb)
Winds: from the SW (230 degrees) at 5 MPH (4 knots; 2.1 m/s)
Visibility: 2.24 miles (3.60 km)
Ceiling: at least 12,000 feet AGL
Clouds: few clouds at 10000 feet AGL
Weather: HZ  (haze)

METAR text: OPPS 190400Z 23004KT 3600 HZ FEW100 08/05 Q1015
Conditions at: OPPS (PESHAWAR (CIV/MI, PK) observed 0400 UTC 19 February 2019
Temperature: 8.0°C (46°F)
Dewpoint: 5.0°C (41°F) [RH = 81%]
Pressure (altimeter): 29.97 inches Hg (1015.0 mb)
Winds: from the SW (230 degrees) at 5 MPH (4 knots; 2.1 m/s)
Visibility: 2.24 miles (3.60 km)
Ceiling: at least 12,000 feet AGL
Clouds: few clouds at 10000 feet AGL
Weather: HZ  (haze)

METAR text: OPPS 190330Z 23004KT 3600 BR FEW100 07/05 Q1014
Conditions at: OPPS (PESHAWAR (CIV/MI, PK) observed 0330 UTC 19 February 2019
Temperature: 7.0°C (45°F)
Dewpoint: 5.0°C (41°F) [RH = 87%]
Pressure (altimeter): 29.94 inches Hg (1014.0 mb)
Winds: from the SW (230 degrees) at 5 MPH (4 knots; 2.1 m/s)
Visibility: 2.24 miles (3.60 km)
Ceiling: at least 12,000 feet AGL
Clouds: few clouds at 10000 feet AGL
Weather: BR  (mist)

METAR text: OPPS 190300Z 23004KT 3000 BR FEW100 07/05 Q1014
Conditions at: OPPS (PESHAWAR (CIV/MI, PK) observed 0300 UTC 19 February 2019
Temperature: 7.0°C (45°F)
Dewpoint: 5.0°C (41°F) [RH = 87%]
Pressure (altimeter): 29.94 inches Hg (1014.0 mb)
Winds: from the SW (230 degrees) at 5 MPH (4 knots; 2.1 m/s)
Visibility: 1.86 miles (2.99 km)
Ceiling: at least 12,000 feet AGL
Clouds: few clouds at 10000 feet AGL
Weather: BR  (mist)

METAR text: OPPS 190230Z 23004KT 3000 BR FEW100 07/06 Q1013
Conditions at: OPPS (PESHAWAR (CIV/MI, PK) observed 0230 UTC 19 February 2019
Temperature: 7.0°C (45°F)
Dewpoint: 6.0°C (43°F) [RH = 93%]
Pressure (altimeter): 29.91 inches Hg (1013.0 mb)
Winds: from the SW (230 degrees) at 5 MPH (4 knots; 2.1 m/s)
Visibility: 1.86 miles (2.99 km)
Ceiling: at least 12,000 feet AGL
Clouds: few clouds at 10000 feet AGL
Weather: BR  (mist)

METAR text: OPPS 190200Z 23004KT 3000 BR FEW100 07/06 Q1013
Conditions at: OPPS (PESHAWAR (CIV/MI, PK) observed 0200 UTC 19 February 2019
Temperature: 7.0°C (45°F)
Dewpoint: 6.0°C (43°F) [RH = 93%]
Pressure (altimeter): 29.91 inches Hg (1013.0 mb)
Winds: from the SW (230 degrees) at 5 MPH (4 knots; 2.1 m/s)
Visibility: 1.86 miles (2.99 km)
Ceiling: at least 12,000 feet AGL
Clouds: few clouds at 10000 feet AGL
Weather: BR  (mist)

METAR text: OPPS 190130Z 23004KT 3000 BR FEW100 06/05 Q1013
Conditions at: OPPS (PESHAWAR (CIV/MI, PK) observed 0130 UTC 19 February 2019
Temperature: 6.0°C (43°F)
Dewpoint: 5.0°C (41°F) [RH = 93%]
Pressure (altimeter): 29.91 inches Hg (1013.0 mb)
Winds: from the SW (230 degrees) at 5 MPH (4 knots; 2.1 m/s)
Visibility: 1.86 miles (2.99 km)
Ceiling: at least 12,000 feet AGL
Clouds: few clouds at 10000 feet AGL
Weather: BR  (mist)

METAR text: OPPS 190100Z 23004KT 3000 BR FEW100 06/05 Q1013
Conditions at: OPPS (PESHAWAR (CIV/MI, PK) observed 0100 UTC 19 February 2019
Temperature: 6.0°C (43°F)
Dewpoint: 5.0°C (41°F) [RH = 93%]
Pressure (altimeter): 29.91 inches Hg (1013.0 mb)
Winds: from the SW (230 degrees) at 5 MPH (4 knots; 2.1 m/s)
Visibility: 1.86 miles (2.99 km)
Ceiling: at least 12,000 feet AGL
Clouds: few clouds at 10000 feet AGL
Weather: BR  (mist)

METAR text: OPPS 190000Z 23004KT 2500 BR FEW100 07/06 Q1012
Conditions at: OPPS (PESHAWAR (CIV/MI, PK) observed 0000 UTC 19 February 2019
Temperature: 7.0°C (45°F)
Dewpoint: 6.0°C (43°F) [RH = 93%]
Pressure (altimeter): 29.88 inches Hg (1012.0 mb)
Winds: from the SW (230 degrees) at 5 MPH (4 knots; 2.1 m/s)
Visibility: 1.55 miles (2.49 km)
Ceiling: at least 12,000 feet AGL
Clouds: few clouds at 10000 feet AGL
Weather: BR  (mist)

METAR text: OPPS 182300Z 23004KT 2500 BR FEW040 FEW100 07/06 Q1012
Conditions at: OPPS (PESHAWAR (CIV/MI, PK) observed 2300 UTC 18 February 2019
Temperature: 7.0°C (45°F)
Dewpoint: 6.0°C (43°F) [RH = 93%]
Pressure (altimeter): 29.88 inches Hg (1012.0 mb)
Winds: from the SW (230 degrees) at 5 MPH (4 knots; 2.1 m/s)
Visibility: 1.55 miles (2.49 km)
Ceiling: at least 12,000 feet AGL
Clouds: few clouds at 4000 feet AGL
few clouds at 10000 feet AGL
Weather: BR  (mist)

METAR text: OPPS 182200Z 23004KT 2500 BR FEW040 FEW100 07/06 Q1012
Conditions at: OPPS (PESHAWAR (CIV/MI, PK) observed 2200 UTC 18 February 2019
Temperature: 7.0°C (45°F)
Dewpoint: 6.0°C (43°F) [RH = 93%]
Pressure (altimeter): 29.88 inches Hg (1012.0 mb)
Winds: from the SW (230 degrees) at 5 MPH (4 knots; 2.1 m/s)
Visibility: 1.55 miles (2.49 km)
Ceiling: at least 12,000 feet AGL
Clouds: few clouds at 4000 feet AGL
few clouds at 10000 feet AGL
Weather: BR  (mist)

METAR text: OPPS 182100Z 23004KT 2500 BR FEW040 SCT100 08/07 Q1012
Conditions at: OPPS (PESHAWAR (CIV/MI, PK) observed 2100 UTC 18 February 2019
Temperature: 8.0°C (46°F)
Dewpoint: 7.0°C (45°F) [RH = 93%]
Pressure (altimeter): 29.88 inches Hg (1012.0 mb)
Winds: from the SW (230 degrees) at 5 MPH (4 knots; 2.1 m/s)
Visibility: 1.55 miles (2.49 km)
Ceiling: at least 12,000 feet AGL
Clouds: few clouds at 4000 feet AGL
scattered clouds at 10000 feet AGL
Weather: BR  (mist)

METAR text: OPPS 182030Z 23004KT 3000 BR FEW040 SCT100 08/07 Q1012
Conditions at: OPPS (PESHAWAR (CIV/MI, PK) observed 2030 UTC 18 February 2019
Temperature: 8.0°C (46°F)
Dewpoint: 7.0°C (45°F) [RH = 93%]
Pressure (altimeter): 29.88 inches Hg (1012.0 mb)
Winds: from the SW (230 degrees) at 5 MPH (4 knots; 2.1 m/s)
Visibility: 1.86 miles (2.99 km)
Ceiling: at least 12,000 feet AGL
Clouds: few clouds at 4000 feet AGL
scattered clouds at 10000 feet AGL
Weather: BR  (mist)

METAR text: OPPS 182000Z 23004KT 3000 BR FEW040 SCT100 08/07 Q1012
Conditions at: OPPS (PESHAWAR (CIV/MI, PK) observed 2000 UTC 18 February 2019
Temperature: 8.0°C (46°F)
Dewpoint: 7.0°C (45°F) [RH = 93%]
Pressure (altimeter): 29.88 inches Hg (1012.0 mb)
Winds: from the SW (230 degrees) at 5 MPH (4 knots; 2.1 m/s)
Visibility: 1.86 miles (2.99 km)
Ceiling: at least 12,000 feet AGL
Clouds: few clouds at 4000 feet AGL
scattered clouds at 10000 feet AGL
Weather: BR  (mist)

METAR text: OPPS 181930Z 23004KT 3000 BR FEW040 SCT100 09/07 Q1012
Conditions at: OPPS (PESHAWAR (CIV/MI, PK) observed 1930 UTC 18 February 2019
Temperature: 9.0°C (48°F)
Dewpoint: 7.0°C (45°F) [RH = 87%]
Pressure (altimeter): 29.88 inches Hg (1012.0 mb)
Winds: from the SW (230 degrees) at 5 MPH (4 knots; 2.1 m/s)
Visibility: 1.86 miles (2.99 km)
Ceiling: at least 12,000 feet AGL
Clouds: few clouds at 4000 feet AGL
scattered clouds at 10000 feet AGL
Weather: BR  (mist)

METAR text: OPPS 181900Z 23004KT 3000 BR FEW040 SCT100 09/07 Q1012
Conditions at: OPPS (PESHAWAR (CIV/MI, PK) observed 1900 UTC 18 February 2019
Temperature: 9.0°C (48°F)
Dewpoint: 7.0°C (45°F) [RH = 87%]
Pressure (altimeter): 29.88 inches Hg (1012.0 mb)
Winds: from the SW (230 degrees) at 5 MPH (4 knots; 2.1 m/s)
Visibility: 1.86 miles (2.99 km)
Ceiling: at least 12,000 feet AGL
Clouds: few clouds at 4000 feet AGL
scattered clouds at 10000 feet AGL
Weather: BR  (mist)

METAR text: OPPS 181830Z 23004KT 3000 BR FEW040 SCT100 09/07 Q1011
Conditions at: OPPS (PESHAWAR (CIV/MI, PK) observed 1830 UTC 18 February 2019
Temperature: 9.0°C (48°F)
Dewpoint: 7.0°C (45°F) [RH = 87%]
Pressure (altimeter): 29.85 inches Hg (1011.0 mb)
Winds: from the SW (230 degrees) at 5 MPH (4 knots; 2.1 m/s)
Visibility: 1.86 miles (2.99 km)
Ceiling: at least 12,000 feet AGL
Clouds: few clouds at 4000 feet AGL
scattered clouds at 10000 feet AGL
Weather: BR  (mist)

METAR text: OPPS 181800Z 23004KT 3000 BR FEW040 SCT100 09/07 Q1011
Conditions at: OPPS (PESHAWAR (CIV/MI, PK) observed 1800 UTC 18 February 2019
Temperature: 9.0°C (48°F)
Dewpoint: 7.0°C (45°F) [RH = 87%]
Pressure (altimeter): 29.85 inches Hg (1011.0 mb)
Winds: from the SW (230 degrees) at 5 MPH (4 knots; 2.1 m/s)
Visibility: 1.86 miles (2.99 km)
Ceiling: at least 12,000 feet AGL
Clouds: few clouds at 4000 feet AGL
scattered clouds at 10000 feet AGL
Weather: BR  (mist)

METAR text: OPPS 181730Z 23004KT 4000 BR FEW040 SCT100 09/07 Q1011
Conditions at: OPPS (PESHAWAR (CIV/MI, PK) observed 1730 UTC 18 February 2019
Temperature: 9.0°C (48°F)
Dewpoint: 7.0°C (45°F) [RH = 87%]
Pressure (altimeter): 29.85 inches Hg (1011.0 mb)
Winds: from the SW (230 degrees) at 5 MPH (4 knots; 2.1 m/s)
Visibility: 2.49 miles (4.01 km)
Ceiling: at least 12,000 feet AGL
Clouds: few clouds at 4000 feet AGL
scattered clouds at 10000 feet AGL
Weather: BR  (mist)

METAR text: OPPS 181700Z 23004KT 4000 BR FEW040 SCT100 09/07 Q1011
Conditions at: OPPS (PESHAWAR (CIV/MI, PK) observed 1700 UTC 18 February 2019
Temperature: 9.0°C (48°F)
Dewpoint: 7.0°C (45°F) [RH = 87%]
Pressure (altimeter): 29.85 inches Hg (1011.0 mb)
Winds: from the SW (230 degrees) at 5 MPH (4 knots; 2.1 m/s)
Visibility: 2.49 miles (4.01 km)
Ceiling: at least 12,000 feet AGL
Clouds: few clouds at 4000 feet AGL
scattered clouds at 10000 feet AGL
Weather: BR  (mist)

METAR text: OPPS 181630Z 31004KT 4000 BR FEW035 SCT100 11/09 Q1011
Conditions at: OPPS (PESHAWAR (CIV/MI, PK) observed 1630 UTC 18 February 2019
Temperature: 11.0°C (52°F)
Dewpoint: 9.0°C (48°F) [RH = 87%]
Pressure (altimeter): 29.85 inches Hg (1011.0 mb)
Winds: from the NW (310 degrees) at 5 MPH (4 knots; 2.1 m/s)
Visibility: 2.49 miles (4.01 km)
Ceiling: at least 12,000 feet AGL
Clouds: few clouds at 3500 feet AGL
scattered clouds at 10000 feet AGL
Weather: BR  (mist)

METAR text: OPPS 181600Z 31004KT 4000 BR FEW035 SCT100 11/09 Q1011
Conditions at: OPPS (PESHAWAR (CIV/MI, PK) observed 1600 UTC 18 February 2019
Temperature: 11.0°C (52°F)
Dewpoint: 9.0°C (48°F) [RH = 87%]
Pressure (altimeter): 29.85 inches Hg (1011.0 mb)
Winds: from the NW (310 degrees) at 5 MPH (4 knots; 2.1 m/s)
Visibility: 2.49 miles (4.01 km)
Ceiling: at least 12,000 feet AGL
Clouds: few clouds at 3500 feet AGL
scattered clouds at 10000 feet AGL
Weather: BR  (mist)

METAR text: OPPS 181530Z 36004KT 4000 BR FEW012 SCT035 BKN070 11/08 Q1011
Conditions at: OPPS (PESHAWAR (CIV/MI, PK) observed 1530 UTC 18 February 2019
Temperature: 11.0°C (52°F)
Dewpoint: 8.0°C (46°F) [RH = 82%]
Pressure (altimeter): 29.85 inches Hg (1011.0 mb)
Winds: from the N (360 degrees) at 5 MPH (4 knots; 2.1 m/s)
Visibility: 2.49 miles (4.01 km)
Ceiling: 7000 feet AGL
Clouds: few clouds at 1200 feet AGL
scattered clouds at 3500 feet AGL
broken clouds at 7000 feet AGL
Weather: BR  (mist)

METAR text: OPPS 181500Z 36004KT 4000 BR FEW012 SCT035 BKN070 11/08 Q1011
Conditions at: OPPS (PESHAWAR (CIV/MI, PK) observed 1500 UTC 18 February 2019
Temperature: 11.0°C (52°F)
Dewpoint: 8.0°C (46°F) [RH = 82%]
Pressure (altimeter): 29.85 inches Hg (1011.0 mb)
Winds: from the N (360 degrees) at 5 MPH (4 knots; 2.1 m/s)
Visibility: 2.49 miles (4.01 km)
Ceiling: 7000 feet AGL
Clouds: few clouds at 1200 feet AGL
scattered clouds at 3500 feet AGL
broken clouds at 7000 feet AGL
Weather: BR  (mist)

METAR text: OPPS 181430Z 05004KT 3600 BR SCT012 SCT035 BKN070 12/09 Q1010
Conditions at: OPPS (PESHAWAR (CIV/MI, PK) observed 1430 UTC 18 February 2019
Temperature: 12.0°C (54°F)
Dewpoint: 9.0°C (48°F) [RH = 82%]
Pressure (altimeter): 29.82 inches Hg (1010.0 mb)
Winds: from the NE (50 degrees) at 5 MPH (4 knots; 2.1 m/s)
Visibility: 2.24 miles (3.60 km)
Ceiling: 7000 feet AGL
Clouds: scattered clouds at 1200 feet AGL
scattered clouds at 3500 feet AGL
broken clouds at 7000 feet AGL
Weather: BR  (mist)

METAR text: OPPS 181400Z 05004KT 3600 BR SCT012 SCT035 BKN070 12/09 Q1010
Conditions at: OPPS (PESHAWAR (CIV/MI, PK) observed 1400 UTC 18 February 2019
Temperature: 12.0°C (54°F)
Dewpoint: 9.0°C (48°F) [RH = 82%]
Pressure (altimeter): 29.82 inches Hg (1010.0 mb)
Winds: from the NE (50 degrees) at 5 MPH (4 knots; 2.1 m/s)
Visibility: 2.24 miles (3.60 km)
Ceiling: 7000 feet AGL
Clouds: scattered clouds at 1200 feet AGL
scattered clouds at 3500 feet AGL
broken clouds at 7000 feet AGL
Weather: BR  (mist)

METAR text: OPPS 181330Z 05004KT 3600 HZ FEW015 SCT035 BKN070 12/08 Q1010
Conditions at: OPPS (PESHAWAR (CIV/MI, PK) observed 1330 UTC 18 February 2019
Temperature: 12.0°C (54°F)
Dewpoint: 8.0°C (46°F) [RH = 76%]
Pressure (altimeter): 29.82 inches Hg (1010.0 mb)
Winds: from the NE (50 degrees) at 5 MPH (4 knots; 2.1 m/s)
Visibility: 2.24 miles (3.60 km)
Ceiling: 7000 feet AGL
Clouds: few clouds at 1500 feet AGL
scattered clouds at 3500 feet AGL
broken clouds at 7000 feet AGL
Weather: HZ  (haze)

METAR text: OPPS 181300Z 05004KT 3600 HZ FEW015 SCT035 BKN070 12/08 Q1010
Conditions at: OPPS (PESHAWAR (CIV/MI, PK) observed 1300 UTC 18 February 2019
Temperature: 12.0°C (54°F)
Dewpoint: 8.0°C (46°F) [RH = 76%]
Pressure (altimeter): 29.82 inches Hg (1010.0 mb)
Winds: from the NE (50 degrees) at 5 MPH (4 knots; 2.1 m/s)
Visibility: 2.24 miles (3.60 km)
Ceiling: 7000 feet AGL
Clouds: few clouds at 1500 feet AGL
scattered clouds at 3500 feet AGL
broken clouds at 7000 feet AGL
Weather: HZ  (haze)

METAR text: OPPS 181230Z 36004KT 3600 HZ FEW015 SCT035 BKN070 12/08 Q1010
Conditions at: OPPS (PESHAWAR (CIV/MI, PK) observed 1230 UTC 18 February 2019
Temperature: 12.0°C (54°F)
Dewpoint: 8.0°C (46°F) [RH = 76%]
Pressure (altimeter): 29.82 inches Hg (1010.0 mb)
Winds: from the N (360 degrees) at 5 MPH (4 knots; 2.1 m/s)
Visibility: 2.24 miles (3.60 km)
Ceiling: 7000 feet AGL
Clouds: few clouds at 1500 feet AGL
scattered clouds at 3500 feet AGL
broken clouds at 7000 feet AGL
Weather: HZ  (haze)

METAR text: OPPS 181200Z 36004KT 3600 HZ FEW015 SCT035 BKN070 12/08 Q1010
Conditions at: OPPS (PESHAWAR (CIV/MI, PK) observed 1200 UTC 18 February 2019
Temperature: 12.0°C (54°F)
Dewpoint: 8.0°C (46°F) [RH = 76%]
Pressure (altimeter): 29.82 inches Hg (1010.0 mb)
Winds: from the N (360 degrees) at 5 MPH (4 knots; 2.1 m/s)
Visibility: 2.24 miles (3.60 km)
Ceiling: 7000 feet AGL
Clouds: few clouds at 1500 feet AGL
scattered clouds at 3500 feet AGL
broken clouds at 7000 feet AGL
Weather: HZ  (haze)

METAR text: OPPS 181130Z 05006KT 3000 BR SCT010 BKN035 BKN070 12/09 Q1010
Conditions at: OPPS (PESHAWAR (CIV/MI, PK) observed 1130 UTC 18 February 2019
Temperature: 12.0°C (54°F)
Dewpoint: 9.0°C (48°F) [RH = 82%]
Pressure (altimeter): 29.82 inches Hg (1010.0 mb)
Winds: from the NE (50 degrees) at 7 MPH (6 knots; 3.1 m/s)
Visibility: 1.86 miles (2.99 km)
Ceiling: 3500 feet AGL
Clouds: scattered clouds at 1000 feet AGL
broken clouds at 3500 feet AGL
broken clouds at 7000 feet AGL
Weather: BR  (mist)

METAR text: OPPS 181100Z 05006KT 3000 BR SCT010 BKN035 BKN070 12/09 Q1010
Conditions at: OPPS (PESHAWAR (CIV/MI, PK) observed 1100 UTC 18 February 2019
Temperature: 12.0°C (54°F)
Dewpoint: 9.0°C (48°F) [RH = 82%]
Pressure (altimeter): 29.82 inches Hg (1010.0 mb)
Winds: from the NE (50 degrees) at 7 MPH (6 knots; 3.1 m/s)
Visibility: 1.86 miles (2.99 km)
Ceiling: 3500 feet AGL
Clouds: scattered clouds at 1000 feet AGL
broken clouds at 3500 feet AGL
broken clouds at 7000 feet AGL
Weather: BR  (mist)

METAR text: OPPS 181030Z 05008KT 3000 BR SCT010 BKN035 BKN070 12/09 Q1011
Conditions at: OPPS (PESHAWAR (CIV/MI, PK) observed 1030 UTC 18 February 2019
Temperature: 12.0°C (54°F)
Dewpoint: 9.0°C (48°F) [RH = 82%]
Pressure (altimeter): 29.85 inches Hg (1011.0 mb)
Winds: from the NE (50 degrees) at 9 MPH (8 knots; 4.1 m/s)
Visibility: 1.86 miles (2.99 km)
Ceiling: 3500 feet AGL
Clouds: scattered clouds at 1000 feet AGL
broken clouds at 3500 feet AGL
broken clouds at 7000 feet AGL
Weather: BR  (mist)

METAR text: OPPS 181000Z 05008KT 3000 BR SCT010 BKN035 BKN070 12/09 Q1011
Conditions at: OPPS (PESHAWAR (CIV/MI, PK) observed 1000 UTC 18 February 2019
Temperature: 12.0°C (54°F)
Dewpoint: 9.0°C (48°F) [RH = 82%]
Pressure (altimeter): 29.85 inches Hg (1011.0 mb)
Winds: from the NE (50 degrees) at 9 MPH (8 knots; 4.1 m/s)
Visibility: 1.86 miles (2.99 km)
Ceiling: 3500 feet AGL
Clouds: scattered clouds at 1000 feet AGL
broken clouds at 3500 feet AGL
broken clouds at 7000 feet AGL
Weather: BR  (mist)

METAR text: OPPS 180930Z 05008KT 3000 BR SCT010 BKN035 BKN070 12/09 Q1011
Conditions at: OPPS (PESHAWAR (CIV/MI, PK) observed 0930 UTC 18 February 2019
Temperature: 12.0°C (54°F)
Dewpoint: 9.0°C (48°F) [RH = 82%]
Pressure (altimeter): 29.85 inches Hg (1011.0 mb)
Winds: from the NE (50 degrees) at 9 MPH (8 knots; 4.1 m/s)
Visibility: 1.86 miles (2.99 km)
Ceiling: 3500 feet AGL
Clouds: scattered clouds at 1000 feet AGL
broken clouds at 3500 feet AGL
broken clouds at 7000 feet AGL
Weather: BR  (mist)

METAR text: OPPS 180900Z 05008KT 3000 BR SCT010 BKN035 BKN070 12/09 Q1011
Conditions at: OPPS (PESHAWAR (CIV/MI, PK) observed 0900 UTC 18 February 2019
Temperature: 12.0°C (54°F)
Dewpoint: 9.0°C (48°F) [RH = 82%]
Pressure (altimeter): 29.85 inches Hg (1011.0 mb)
Winds: from the NE (50 degrees) at 9 MPH (8 knots; 4.1 m/s)
Visibility: 1.86 miles (2.99 km)
Ceiling: 3500 feet AGL
Clouds: scattered clouds at 1000 feet AGL
broken clouds at 3500 feet AGL
broken clouds at 7000 feet AGL
Weather: BR  (mist)

METAR text: OPPS 180830Z 31008KT 3000 BR SCT010 BKN035 BKN070 12/09 Q1012
Conditions at: OPPS (PESHAWAR (CIV/MI, PK) observed 0830 UTC 18 February 2019
Temperature: 12.0°C (54°F)
Dewpoint: 9.0°C (48°F) [RH = 82%]
Pressure (altimeter): 29.88 inches Hg (1012.0 mb)
Winds: from the NW (310 degrees) at 9 MPH (8 knots; 4.1 m/s)
Visibility: 1.86 miles (2.99 km)
Ceiling: 3500 feet AGL
Clouds: scattered clouds at 1000 feet AGL
broken clouds at 3500 feet AGL
broken clouds at 7000 feet AGL
Weather: BR  (mist)

METAR text: OPPS 180800Z 31008KT 3000 BR SCT010 BKN035 BKN070 12/09 Q1012
Conditions at: OPPS (PESHAWAR (CIV/MI, PK) observed 0800 UTC 18 February 2019
Temperature: 12.0°C (54°F)
Dewpoint: 9.0°C (48°F) [RH = 82%]
Pressure (altimeter): 29.88 inches Hg (1012.0 mb)
Winds: from the NW (310 degrees) at 9 MPH (8 knots; 4.1 m/s)
Visibility: 1.86 miles (2.99 km)
Ceiling: 3500 feet AGL
Clouds: scattered clouds at 1000 feet AGL
broken clouds at 3500 feet AGL
broken clouds at 7000 feet AGL
Weather: BR  (mist)

METAR text: OPPS 180730Z 31008KT 3000 BR SCT010 BKN035 BKN070 11/09 Q1013
Conditions at: OPPS (PESHAWAR (CIV/MI, PK) observed 0730 UTC 18 February 2019
Temperature: 11.0°C (52°F)
Dewpoint: 9.0°C (48°F) [RH = 87%]
Pressure (altimeter): 29.91 inches Hg (1013.0 mb)
Winds: from the NW (310 degrees) at 9 MPH (8 knots; 4.1 m/s)
Visibility: 1.86 miles (2.99 km)
Ceiling: 3500 feet AGL
Clouds: scattered clouds at 1000 feet AGL
broken clouds at 3500 feet AGL
broken clouds at 7000 feet AGL
Weather: BR  (mist)

METAR text: OPPS 180700Z 31008KT 3000 BR SCT010 BKN035 BKN070 11/09 Q1013
Conditions at: OPPS (PESHAWAR (CIV/MI, PK) observed 0700 UTC 18 February 2019
Temperature: 11.0°C (52°F)
Dewpoint: 9.0°C (48°F) [RH = 87%]
Pressure (altimeter): 29.91 inches Hg (1013.0 mb)
Winds: from the NW (310 degrees) at 9 MPH (8 knots; 4.1 m/s)
Visibility: 1.86 miles (2.99 km)
Ceiling: 3500 feet AGL
Clouds: scattered clouds at 1000 feet AGL
broken clouds at 3500 feet AGL
broken clouds at 7000 feet AGL
Weather: BR  (mist)

METAR text: OPPS 180630Z 31006KT 3000 BR SCT010 BKN035 BKN070 11/09 Q1013
Conditions at: OPPS (PESHAWAR (CIV/MI, PK) observed 0630 UTC 18 February 2019
Temperature: 11.0°C (52°F)
Dewpoint: 9.0°C (48°F) [RH = 87%]
Pressure (altimeter): 29.91 inches Hg (1013.0 mb)
Winds: from the NW (310 degrees) at 7 MPH (6 knots; 3.1 m/s)
Visibility: 1.86 miles (2.99 km)
Ceiling: 3500 feet AGL
Clouds: scattered clouds at 1000 feet AGL
broken clouds at 3500 feet AGL
broken clouds at 7000 feet AGL
Weather: BR  (mist)

METAR text: OPPS 180600Z 31006KT 3000 BR SCT010 BKN035 BKN070 11/09 Q1013
Conditions at: OPPS (PESHAWAR (CIV/MI, PK) observed 0600 UTC 18 February 2019
Temperature: 11.0°C (52°F)
Dewpoint: 9.0°C (48°F) [RH = 87%]
Pressure (altimeter): 29.91 inches Hg (1013.0 mb)
Winds: from the NW (310 degrees) at 7 MPH (6 knots; 3.1 m/s)
Visibility: 1.86 miles (2.99 km)
Ceiling: 3500 feet AGL
Clouds: scattered clouds at 1000 feet AGL
broken clouds at 3500 feet AGL
broken clouds at 7000 feet AGL
Weather: BR  (mist)

METAR text: OPPS 180530Z 31004KT 3600 BR SCT010 BKN035 BKN070 11/09 Q1013
Conditions at: OPPS (PESHAWAR (CIV/MI, PK) observed 0530 UTC 18 February 2019
Temperature: 11.0°C (52°F)
Dewpoint: 9.0°C (48°F) [RH = 87%]
Pressure (altimeter): 29.91 inches Hg (1013.0 mb)
Winds: from the NW (310 degrees) at 5 MPH (4 knots; 2.1 m/s)
Visibility: 2.24 miles (3.60 km)
Ceiling: 3500 feet AGL
Clouds: scattered clouds at 1000 feet AGL
broken clouds at 3500 feet AGL
broken clouds at 7000 feet AGL
Weather: BR  (mist)

METAR text: OPPS 180500Z 31004KT 4000 BR SCT010 BKN035 BKN070 11/09 Q1013
Conditions at: OPPS (PESHAWAR (CIV/MI, PK) observed 0500 UTC 18 February 2019
Temperature: 11.0°C (52°F)
Dewpoint: 9.0°C (48°F) [RH = 87%]
Pressure (altimeter): 29.91 inches Hg (1013.0 mb)
Winds: from the NW (310 degrees) at 5 MPH (4 knots; 2.1 m/s)
Visibility: 2.49 miles (4.01 km)
Ceiling: 3500 feet AGL
Clouds: scattered clouds at 1000 feet AGL
broken clouds at 3500 feet AGL
broken clouds at 7000 feet AGL
Weather: BR  (mist)

METAR text: OPPS 180430Z 31004KT 4000 BR SCT010 BKN035 SCT070 11/09 Q1012
Conditions at: OPPS (PESHAWAR (CIV/MI, PK) observed 0430 UTC 18 February 2019
Temperature: 11.0°C (52°F)
Dewpoint: 9.0°C (48°F) [RH = 87%]
Pressure (altimeter): 29.88 inches Hg (1012.0 mb)
Winds: from the NW (310 degrees) at 5 MPH (4 knots; 2.1 m/s)
Visibility: 2.49 miles (4.01 km)
Ceiling: 3500 feet AGL
Clouds: scattered clouds at 1000 feet AGL
broken clouds at 3500 feet AGL
scattered clouds at 7000 feet AGL
Weather: BR  (mist)

METAR text: OPPS 180400Z 31004KT 4000 BR SCT010 BKN035 SCT070 11/09 Q1012
Conditions at: OPPS (PESHAWAR (CIV/MI, PK) observed 0400 UTC 18 February 2019
Temperature: 11.0°C (52°F)
Dewpoint: 9.0°C (48°F) [RH = 87%]
Pressure (altimeter): 29.88 inches Hg (1012.0 mb)
Winds: from the NW (310 degrees) at 5 MPH (4 knots; 2.1 m/s)
Visibility: 2.49 miles (4.01 km)
Ceiling: 3500 feet AGL
Clouds: scattered clouds at 1000 feet AGL
broken clouds at 3500 feet AGL
scattered clouds at 7000 feet AGL
Weather: BR  (mist)

METAR text: OPPS 180330Z 36004KT 4000 BR SCT010 BKN035 SCT070 11/09 Q1012
Conditions at: OPPS (PESHAWAR (CIV/MI, PK) observed 0330 UTC 18 February 2019
Temperature: 11.0°C (52°F)
Dewpoint: 9.0°C (48°F) [RH = 87%]
Pressure (altimeter): 29.88 inches Hg (1012.0 mb)
Winds: from the N (360 degrees) at 5 MPH (4 knots; 2.1 m/s)
Visibility: 2.49 miles (4.01 km)
Ceiling: 3500 feet AGL
Clouds: scattered clouds at 1000 feet AGL
broken clouds at 3500 feet AGL
scattered clouds at 7000 feet AGL
Weather: BR  (mist)

METAR text: OPPS 180300Z 36004KT 4000 BR SCT010 BKN035 SCT070 11/09 Q1012
Conditions at: OPPS (PESHAWAR (CIV/MI, PK) observed 0300 UTC 18 February 2019
Temperature: 11.0°C (52°F)
Dewpoint: 9.0°C (48°F) [RH = 87%]
Pressure (altimeter): 29.88 inches Hg (1012.0 mb)
Winds: from the N (360 degrees) at 5 MPH (4 knots; 2.1 m/s)
Visibility: 2.49 miles (4.01 km)
Ceiling: 3500 feet AGL
Clouds: scattered clouds at 1000 feet AGL
broken clouds at 3500 feet AGL
scattered clouds at 7000 feet AGL
Weather: BR  (mist)

METAR text: OPPS 180230Z 36006KT 5000 BR FEW015 SCT035 BKN070 10/07 Q1011
Conditions at: OPPS (PESHAWAR (CIV/MI, PK) observed 0230 UTC 18 February 2019
Temperature: 10.0°C (50°F)
Dewpoint: 7.0°C (45°F) [RH = 82%]
Pressure (altimeter): 29.85 inches Hg (1011.0 mb)
Winds: from the N (360 degrees) at 7 MPH (6 knots; 3.1 m/s)
Visibility: 3 miles ( 5 km)
Ceiling: 7000 feet AGL
Clouds: few clouds at 1500 feet AGL
scattered clouds at 3500 feet AGL
broken clouds at 7000 feet AGL
Weather: BR  (mist)

METAR text: OPPS 180200Z 36006KT 5000 BR FEW015 SCT035 BKN070 10/07 Q1011
Conditions at: OPPS (PESHAWAR (CIV/MI, PK) observed 0200 UTC 18 February 2019
Temperature: 10.0°C (50°F)
Dewpoint: 7.0°C (45°F) [RH = 82%]
Pressure (altimeter): 29.85 inches Hg (1011.0 mb)
Winds: from the N (360 degrees) at 7 MPH (6 knots; 3.1 m/s)
Visibility: 3 miles ( 5 km)
Ceiling: 7000 feet AGL
Clouds: few clouds at 1500 feet AGL
scattered clouds at 3500 feet AGL
broken clouds at 7000 feet AGL
Weather: BR  (mist)

METAR text: OPPS 180100Z 36006KT 5000 BR SCT035 BKN070 10/07 Q1011
Conditions at: OPPS (PESHAWAR (CIV/MI, PK) observed 0100 UTC 18 February 2019
Temperature: 10.0°C (50°F)
Dewpoint: 7.0°C (45°F) [RH = 82%]
Pressure (altimeter): 29.85 inches Hg (1011.0 mb)
Winds: from the N (360 degrees) at 7 MPH (6 knots; 3.1 m/s)
Visibility: 3 miles ( 5 km)
Ceiling: 7000 feet AGL
Clouds: scattered clouds at 3500 feet AGL
broken clouds at 7000 feet AGL
Weather: BR  (mist)

METAR text: OPPS 180030Z 36010KT 5000 RA SCT035 BKN070 10/06 Q1011
Conditions at: OPPS (PESHAWAR (CIV/MI, PK) observed 0030 UTC 18 February 2019
Temperature: 10.0°C (50°F)
Dewpoint: 6.0°C (43°F) [RH = 76%]
Pressure (altimeter): 29.85 inches Hg (1011.0 mb)
Winds: from the N (360 degrees) at 12 MPH (10 knots; 5.1 m/s)
Visibility: 3 miles ( 5 km)
Ceiling: 7000 feet AGL
Clouds: scattered clouds at 3500 feet AGL
broken clouds at 7000 feet AGL
Weather: RA  (moderate rain)

METAR text: OPPS 180000Z 36010KT 5000 RA SCT035 BKN070 10/067 Q1011
Conditions at: OPPS (PESHAWAR (CIV/MI, PK) observed 0000 UTC 18 February 2019
Temperature: missing
Dewpoint: missing
Pressure (altimeter): 29.85 inches Hg (1011.0 mb)
Winds: from the N (360 degrees) at 12 MPH (10 knots; 5.1 m/s)
Visibility: 3 miles ( 5 km)
Ceiling: 7000 feet AGL
Clouds: scattered clouds at 3500 feet AGL
broken clouds at 7000 feet AGL
Weather: RA  (moderate rain)

METAR text: OPPS 172300Z 36010KT 5000 RA SCT040 BKN080 11/06 Q1010
Conditions at: OPPS (PESHAWAR (CIV/MI, PK) observed 2300 UTC 17 February 2019
Temperature: 11.0°C (52°F)
Dewpoint: 6.0°C (43°F) [RH = 71%]
Pressure (altimeter): 29.82 inches Hg (1010.0 mb)
Winds: from the N (360 degrees) at 12 MPH (10 knots; 5.1 m/s)
Visibility: 3 miles ( 5 km)
Ceiling: 8000 feet AGL
Clouds: scattered clouds at 4000 feet AGL
broken clouds at 8000 feet AGL
Weather: RA  (moderate rain)

METAR text: OPPS 172200Z 36010KT 5000 DZ SCT040 BKN080 11/06 Q1010
Conditions at: OPPS (PESHAWAR (CIV/MI, PK) observed 2200 UTC 17 February 2019
Temperature: 11.0°C (52°F)
Dewpoint: 6.0°C (43°F) [RH = 71%]
Pressure (altimeter): 29.82 inches Hg (1010.0 mb)
Winds: from the N (360 degrees) at 12 MPH (10 knots; 5.1 m/s)
Visibility: 3 miles ( 5 km)
Ceiling: 8000 feet AGL
Clouds: scattered clouds at 4000 feet AGL
broken clouds at 8000 feet AGL
Weather: DZ  (moderate drizzle)

METAR text: OPPS 172100Z 23004KT 5000 RA SCT040 BKN080 12/06 Q1011
Conditions at: OPPS (PESHAWAR (CIV/MI, PK) observed 2100 UTC 17 February 2019
Temperature: 12.0°C (54°F)
Dewpoint: 6.0°C (43°F) [RH = 67%]
Pressure (altimeter): 29.85 inches Hg (1011.0 mb)
Winds: from the SW (230 degrees) at 5 MPH (4 knots; 2.1 m/s)
Visibility: 3 miles ( 5 km)
Ceiling: 8000 feet AGL
Clouds: scattered clouds at 4000 feet AGL
broken clouds at 8000 feet AGL
Weather: RA  (moderate rain)

METAR text: OPPS 172000Z 23004KT 5000 RA FEW040 BKN110 13/04 Q1011
Conditions at: OPPS (PESHAWAR (CIV/MI, PK) observed 2000 UTC 17 February 2019
Temperature: 13.0°C (55°F)
Dewpoint: 4.0°C (39°F) [RH = 54%]
Pressure (altimeter): 29.85 inches Hg (1011.0 mb)
Winds: from the SW (230 degrees) at 5 MPH (4 knots; 2.1 m/s)
Visibility: 3 miles ( 5 km)
Ceiling: 11000 feet AGL
Clouds: few clouds at 4000 feet AGL
broken clouds at 11000 feet AGL
Weather: RA  (moderate rain)

METAR text: OPPS 171900Z 18006KT 5000 HZ FEW040 BKN110 14/04 Q1012
Conditions at: OPPS (PESHAWAR (CIV/MI, PK) observed 1900 UTC 17 February 2019
Temperature: 14.0°C (57°F)
Dewpoint: 4.0°C (39°F) [RH = 51%]
Pressure (altimeter): 29.88 inches Hg (1012.0 mb)
Winds: from the S (180 degrees) at 7 MPH (6 knots; 3.1 m/s)
Visibility: 3 miles ( 5 km)
Ceiling: 11000 feet AGL
Clouds: few clouds at 4000 feet AGL
broken clouds at 11000 feet AGL
Weather: HZ  (haze)

Forecast for: OPPS (PESHAWAR (CIV/MI, PK)
Text: TAF OPPS 190412Z 1906/2012 05010KT 4000 HZ SCT040 SCT100
Forecast period: 0600 to 1000 UTC 19 February 2019
Forecast type: FROM: standard forecast or significant change
Winds: from the NE (50 degrees) at 12 MPH (10 knots; 5.1 m/s)
Visibility: 2.49 miles (4.01 km)
Ceiling: at least 12,000 feet AGL
Clouds: scattered clouds at 4000 feet AGL
scattered clouds at 10000 feet AGL
Weather: HZ  (haze)
Text: BECMG 1910/1912 31015KT 3000 HZ FEW030TCU SCT040 BKN100
Forecast period: 1000 to 1500 UTC 19 February 2019
Forecast type: BECOMING: Conditions expected to become as follows by 1200 UTC 19 February 2019
Winds: from the NW (310 degrees) at 17 MPH (15 knots; 7.7 m/s)
Visibility: 1.86 miles (2.99 km)
Ceiling: 10000 feet AGL
Clouds: few clouds at 3000 feet AGL
scattered clouds at 4000 feet AGL
broken clouds at 10000 feet AGL
Weather: HZ  (haze)
Text: BECMG 1915/1917 31015G25KT 3000 TSRA FEW030TCU/CB SCT040 OVC080
Forecast period: 1500 UTC 19 February 2019 to 1200 UTC 20 February 2019
Forecast type: BECOMING: Conditions expected to become as follows by 1700 UTC 19 February 2019
Winds: from the NW (310 degrees) at 17 MPH (15 knots; 7.7 m/s)
gusting to 29 MPH (25 knots; 12.9 m/s)
Visibility: 1.86 miles (2.99 km)
Ceiling: 8000 feet AGL
Clouds: scattered clouds at 4000 feet AGL
overcast cloud deck at 8000 feet AGL
Weather: TSRA  (rain associated with thunderstorm(s))